sensor_id;sensor_type;location;lat;lon;timestamp;P1;durP1;ratioP1;P2;durP2;ratioP2
48789;SDS011;41718;51.980;5.734;2023-04-24T00:03:37;3.60;;;3.28;;
48789;SDS011;41718;51.980;5.734;2023-04-24T00:08:40;2.63;;;2.40;;
48789;SDS011;41718;51.980;5.734;2023-04-24T00:13:41;3.30;;;2.72;;
48789;SDS011;41718;51.980;5.734;2023-04-24T00:18:43;4.13;;;2.58;;
48789;SDS011;41718;51.980;5.734;2023-04-24T00:23:46;2.65;;;1.98;;
48789;SDS011;41718;51.980;5.734;2023-04-24T00:28:47;3.60;;;1.80;;
48789;SDS011;41718;51.980;5.734;2023-04-24T00:33:49;1.98;;;1.65;;
48789;SDS011;41718;51.980;5.734;2023-04-24T00:38:50;2.47;;;1.40;;
48789;SDS011;41718;51.980;5.734;2023-04-24T00:43:52;2.10;;;1.90;;
48789;SDS011;41718;51.980;5.734;2023-04-24T00:48:53;4.25;;;2.47;;
48789;SDS011;41718;51.980;5.734;2023-04-24T00:53:57;3.63;;;3.00;;
48789;SDS011;41718;51.980;5.734;2023-04-24T00:58:59;3.45;;;3.15;;
48789;SDS011;41718;51.980;5.734;2023-04-24T01:04:01;3.53;;;3.05;;
48789;SDS011;41718;51.980;5.734;2023-04-24T01:09:03;3.72;;;3.28;;
48789;SDS011;41718;51.980;5.734;2023-04-24T01:14:07;4.03;;;2.70;;
48789;SDS011;41718;51.980;5.734;2023-04-24T01:19:08;4.32;;;3.65;;
48789;SDS011;41718;51.980;5.734;2023-04-24T01:24:12;3.38;;;2.65;;
48789;SDS011;41718;51.980;5.734;2023-04-24T01:29:14;1.48;;;1.33;;
48789;SDS011;41718;51.980;5.734;2023-04-24T01:34:15;2.30;;;1.58;;
48789;SDS011;41718;51.980;5.734;2023-04-24T01:39:18;2.42;;;1.92;;
48789;SDS011;41718;51.980;5.734;2023-04-24T01:44:21;0.60;;;0.60;;
48789;SDS011;41718;51.980;5.734;2023-04-24T01:49:24;2.88;;;2.22;;
48789;SDS011;41718;51.980;5.734;2023-04-24T01:54:25;3.92;;;2.72;;
48789;SDS011;41718;51.980;5.734;2023-04-24T01:59:27;3.80;;;2.53;;
48789;SDS011;41718;51.980;5.734;2023-04-24T02:04:29;3.63;;;2.85;;
48789;SDS011;41718;51.980;5.734;2023-04-24T02:09:31;5.18;;;3.22;;
48789;SDS011;41718;51.980;5.734;2023-04-24T02:14:32;5.70;;;4.10;;
48789;SDS011;41718;51.980;5.734;2023-04-24T02:19:34;5.78;;;4.43;;
48789;SDS011;41718;51.980;5.734;2023-04-24T02:24:36;5.15;;;4.25;;
48789;SDS011;41718;51.980;5.734;2023-04-24T02:29:39;7.18;;;5.00;;
48789;SDS011;41718;51.980;5.734;2023-04-24T02:34:41;8.32;;;6.50;;
48789;SDS011;41718;51.980;5.734;2023-04-24T02:39:43;12.43;;;9.30;;
48789;SDS011;41718;51.980;5.734;2023-04-24T02:44:45;13.07;;;8.55;;
48789;SDS011;41718;51.980;5.734;2023-04-24T02:49:46;12.13;;;8.23;;
48789;SDS011;41718;51.980;5.734;2023-04-24T02:54:48;14.27;;;9.70;;
48789;SDS011;41718;51.980;5.734;2023-04-24T02:59:49;7.95;;;5.30;;
48789;SDS011;41718;51.980;5.734;2023-04-24T03:04:51;7.55;;;5.25;;
48789;SDS011;41718;51.980;5.734;2023-04-24T03:09:53;7.72;;;4.50;;
48789;SDS011;41718;51.980;5.734;2023-04-24T03:14:54;7.40;;;5.07;;
48789;SDS011;41718;51.980;5.734;2023-04-24T03:19:56;7.05;;;5.35;;
48789;SDS011;41718;51.980;5.734;2023-04-24T03:24:57;11.10;;;8.15;;
48789;SDS011;41718;51.980;5.734;2023-04-24T03:30:01;15.13;;;10.07;;
48789;SDS011;41718;51.980;5.734;2023-04-24T03:35:04;10.10;;;6.63;;
48789;SDS011;41718;51.980;5.734;2023-04-24T03:40:08;16.65;;;11.60;;
48789;SDS011;41718;51.980;5.734;2023-04-24T03:45:10;21.52;;;12.85;;
48789;SDS011;41718;51.980;5.734;2023-04-24T03:50:12;20.70;;;13.85;;
48789;SDS011;41718;51.980;5.734;2023-04-24T03:55:13;26.13;;;15.13;;
48789;SDS011;41718;51.980;5.734;2023-04-24T04:00:22;32.78;;;19.08;;
48789;SDS011;41718;51.980;5.734;2023-04-24T04:05:25;31.85;;;19.30;;
48789;SDS011;41718;51.980;5.734;2023-04-24T04:10:26;32.50;;;20.95;;
48789;SDS011;41718;51.980;5.734;2023-04-24T04:15:28;31.02;;;20.02;;
48789;SDS011;41718;51.980;5.734;2023-04-24T04:20:29;27.95;;;20.00;;
48789;SDS011;41718;51.980;5.734;2023-04-24T04:25:31;34.63;;;20.70;;
48789;SDS011;41718;51.980;5.734;2023-04-24T04:30:34;30.95;;;18.77;;
48789;SDS011;41718;51.980;5.734;2023-04-24T04:35:35;31.10;;;17.98;;
48789;SDS011;41718;51.980;5.734;2023-04-24T04:40:37;30.75;;;20.38;;
48789;SDS011;41718;51.980;5.734;2023-04-24T04:45:39;28.40;;;17.58;;
48789;SDS011;41718;51.980;5.734;2023-04-24T04:50:42;14.52;;;8.95;;
48789;SDS011;41718;51.980;5.734;2023-04-24T04:55:44;19.85;;;13.02;;
48789;SDS011;41718;51.980;5.734;2023-04-24T05:00:45;23.15;;;14.85;;
48789;SDS011;41718;51.980;5.734;2023-04-24T05:05:47;17.40;;;11.82;;
48789;SDS011;41718;51.980;5.734;2023-04-24T05:10:49;16.40;;;11.07;;
48789;SDS011;41718;51.980;5.734;2023-04-24T05:15:51;20.35;;;13.07;;
48789;SDS011;41718;51.980;5.734;2023-04-24T05:20:53;17.33;;;11.20;;
48789;SDS011;41718;51.980;5.734;2023-04-24T05:25:54;13.43;;;9.65;;
48789;SDS011;41718;51.980;5.734;2023-04-24T05:30:56;11.02;;;7.72;;
48789;SDS011;41718;51.980;5.734;2023-04-24T05:35:58;6.22;;;4.65;;
48789;SDS011;41718;51.980;5.734;2023-04-24T05:40:59;7.70;;;5.32;;
48789;SDS011;41718;51.980;5.734;2023-04-24T05:46:01;6.60;;;4.35;;
48789;SDS011;41718;51.980;5.734;2023-04-24T05:51:03;6.43;;;4.88;;
48789;SDS011;41718;51.980;5.734;2023-04-24T05:56:04;5.25;;;4.20;;
48789;SDS011;41718;51.980;5.734;2023-04-24T06:01:06;10.18;;;6.00;;
48789;SDS011;41718;51.980;5.734;2023-04-24T06:06:08;8.98;;;6.28;;
48789;SDS011;41718;51.980;5.734;2023-04-24T06:11:09;8.02;;;5.50;;
48789;SDS011;41718;51.980;5.734;2023-04-24T06:16:11;6.97;;;5.00;;
48789;SDS011;41718;51.980;5.734;2023-04-24T06:21:13;8.02;;;5.40;;
48789;SDS011;41718;51.980;5.734;2023-04-24T06:26:14;7.18;;;5.53;;
48789;SDS011;41718;51.980;5.734;2023-04-24T06:31:16;6.60;;;5.05;;
48789;SDS011;41718;51.980;5.734;2023-04-24T06:36:18;3.60;;;2.35;;
48789;SDS011;41718;51.980;5.734;2023-04-24T06:41:19;3.85;;;2.85;;
48789;SDS011;41718;51.980;5.734;2023-04-24T06:46:21;4.25;;;2.97;;
48789;SDS011;41718;51.980;5.734;2023-04-24T06:51:25;3.38;;;2.03;;
48789;SDS011;41718;51.980;5.734;2023-04-24T06:56:27;5.68;;;1.42;;
48789;SDS011;41718;51.980;5.734;2023-04-24T07:01:32;2.70;;;2.13;;
48789;SDS011;41718;51.980;5.734;2023-04-24T07:06:34;2.33;;;1.63;;
48789;SDS011;41718;51.980;5.734;2023-04-24T07:11:37;1.17;;;0.95;;
48789;SDS011;41718;51.980;5.734;2023-04-24T07:16:46;1.00;;;0.90;;
48789;SDS011;41718;51.980;5.734;2023-04-24T07:21:47;0.95;;;0.95;;
48789;SDS011;41718;51.980;5.734;2023-04-24T07:26:51;3.00;;;1.90;;
48789;SDS011;41718;51.980;5.734;2023-04-24T07:31:53;2.20;;;1.52;;
48789;SDS011;41718;51.980;5.734;2023-04-24T07:37:01;3.25;;;2.55;;
48789;SDS011;41718;51.980;5.734;2023-04-24T07:42:03;3.75;;;3.13;;
48789;SDS011;41718;51.980;5.734;2023-04-24T07:47:14;5.93;;;3.15;;
48789;SDS011;41718;51.980;5.734;2023-04-24T07:52:20;9.88;;;6.40;;
48789;SDS011;41718;51.980;5.734;2023-04-24T07:57:34;7.75;;;4.32;;
48789;SDS011;41718;51.980;5.734;2023-04-24T08:02:39;9.40;;;4.97;;
48789;SDS011;41718;51.980;5.734;2023-04-24T08:07:42;9.47;;;5.83;;
48789;SDS011;41718;51.980;5.734;2023-04-24T08:12:45;3.72;;;2.25;;
48789;SDS011;41718;51.980;5.734;2023-04-24T08:17:46;8.07;;;5.68;;
48789;SDS011;41718;51.980;5.734;2023-04-24T08:22:50;4.68;;;2.90;;
48789;SDS011;41718;51.980;5.734;2023-04-24T08:27:55;13.75;;;4.85;;
48789;SDS011;41718;51.980;5.734;2023-04-24T08:32:57;11.57;;;6.50;;
48789;SDS011;41718;51.980;5.734;2023-04-24T08:37:59;8.75;;;5.38;;
48789;SDS011;41718;51.980;5.734;2023-04-24T08:43:00;30.92;;;13.65;;
48789;SDS011;41718;51.980;5.734;2023-04-24T08:48:04;4.85;;;2.38;;
48789;SDS011;41718;51.980;5.734;2023-04-24T08:53:20;9.98;;;5.03;;
48789;SDS011;41718;51.980;5.734;2023-04-24T08:58:22;4.13;;;3.47;;
48789;SDS011;41718;51.980;5.734;2023-04-24T09:03:27;5.82;;;3.55;;
48789;SDS011;41718;51.980;5.734;2023-04-24T09:08:29;6.97;;;3.45;;
48789;SDS011;41718;51.980;5.734;2023-04-24T09:13:32;6.78;;;3.30;;
48789;SDS011;41718;51.980;5.734;2023-04-24T09:18:34;6.32;;;2.67;;
48789;SDS011;41718;51.980;5.734;2023-04-24T09:23:36;6.03;;;2.65;;
48789;SDS011;41718;51.980;5.734;2023-04-24T09:28:38;6.97;;;2.15;;
48789;SDS011;41718;51.980;5.734;2023-04-24T09:33:47;8.38;;;2.78;;
48789;SDS011;41718;51.980;5.734;2023-04-24T09:38:57;3.90;;;2.40;;
48789;SDS011;41718;51.980;5.734;2023-04-24T09:49:44;7.07;;;2.30;;
48789;SDS011;41718;51.980;5.734;2023-04-24T09:55:05;11.68;;;2.70;;
48789;SDS011;41718;51.980;5.734;2023-04-24T10:00:45;4.88;;;3.30;;
48789;SDS011;41718;51.980;5.734;2023-04-24T10:05:53;5.53;;;1.90;;
48789;SDS011;41718;51.980;5.734;2023-04-24T10:11:14;5.53;;;1.92;;
48789;SDS011;41718;51.980;5.734;2023-04-24T10:17:02;3.60;;;1.73;;
48789;SDS011;41718;51.980;5.734;2023-04-24T10:22:31;8.07;;;2.83;;
48789;SDS011;41718;51.980;5.734;2023-04-24T10:28:03;11.82;;;2.90;;
48789;SDS011;41718;51.980;5.734;2023-04-24T10:33:11;6.18;;;1.77;;
48789;SDS011;41718;51.980;5.734;2023-04-24T10:38:18;4.30;;;2.25;;
48789;SDS011;41718;51.980;5.734;2023-04-24T10:43:28;5.18;;;1.90;;
48789;SDS011;41718;51.980;5.734;2023-04-24T10:48:31;9.25;;;2.90;;
48789;SDS011;41718;51.980;5.734;2023-04-24T10:53:36;2.40;;;1.23;;
48789;SDS011;41718;51.980;5.734;2023-04-24T10:58:50;5.95;;;2.67;;
48789;SDS011;41718;51.980;5.734;2023-04-24T11:04:13;3.60;;;0.95;;
48789;SDS011;41718;51.980;5.734;2023-04-24T11:09:44;5.80;;;2.42;;
48789;SDS011;41718;51.980;5.734;2023-04-24T11:20:05;7.82;;;1.95;;
48789;SDS011;41718;51.980;5.734;2023-04-24T11:25:22;8.23;;;2.47;;
48789;SDS011;41718;51.980;5.734;2023-04-24T11:30:39;7.10;;;1.48;;
48789;SDS011;41718;51.980;5.734;2023-04-24T11:35:48;4.45;;;1.17;;
48789;SDS011;41718;51.980;5.734;2023-04-24T11:40:52;2.15;;;1.58;;
48789;SDS011;41718;51.980;5.734;2023-04-24T11:45:55;3.38;;;1.02;;
48789;SDS011;41718;51.980;5.734;2023-04-24T11:51:07;2.15;;;1.33;;
48789;SDS011;41718;51.980;5.734;2023-04-24T11:56:16;2.65;;;1.08;;
48789;SDS011;41718;51.980;5.734;2023-04-24T12:01:21;1.58;;;0.98;;
48789;SDS011;41718;51.980;5.734;2023-04-24T12:06:26;1.25;;;0.38;;
48789;SDS011;41718;51.980;5.734;2023-04-24T12:11:29;2.95;;;1.70;;
48789;SDS011;41718;51.980;5.734;2023-04-24T12:16:33;2.33;;;0.93;;
48789;SDS011;41718;51.980;5.734;2023-04-24T12:21:35;5.32;;;1.02;;
48789;SDS011;41718;51.980;5.734;2023-04-24T12:26:42;2.95;;;0.90;;
48789;SDS011;41718;51.980;5.734;2023-04-24T12:31:46;0.65;;;0.65;;
48789;SDS011;41718;51.980;5.734;2023-04-24T12:36:48;3.28;;;1.00;;
48789;SDS011;41718;51.980;5.734;2023-04-24T12:41:54;1.35;;;1.17;;
48789;SDS011;41718;51.980;5.734;2023-04-24T12:46:59;2.15;;;0.77;;
48789;SDS011;41718;51.980;5.734;2023-04-24T12:52:02;3.15;;;1.10;;
48789;SDS011;41718;51.980;5.734;2023-04-24T12:57:10;2.42;;;0.90;;
48789;SDS011;41718;51.980;5.734;2023-04-24T13:02:12;5.20;;;2.80;;
48789;SDS011;41718;51.980;5.734;2023-04-24T13:07:14;6.50;;;3.30;;
48789;SDS011;41718;51.980;5.734;2023-04-24T13:12:24;4.35;;;0.85;;
48789;SDS011;41718;51.980;5.734;2023-04-24T13:17:29;3.55;;;1.65;;
48789;SDS011;41718;51.980;5.734;2023-04-24T13:22:32;3.70;;;1.83;;
48789;SDS011;41718;51.980;5.734;2023-04-24T13:27:35;4.65;;;2.50;;
48789;SDS011;41718;51.980;5.734;2023-04-24T13:32:38;5.50;;;1.42;;
48789;SDS011;41718;51.980;5.734;2023-04-24T13:37:40;5.05;;;1.40;;
48789;SDS011;41718;51.980;5.734;2023-04-24T13:42:42;4.68;;;1.90;;
48789;SDS011;41718;51.980;5.734;2023-04-24T13:47:44;4.68;;;1.05;;
48789;SDS011;41718;51.980;5.734;2023-04-24T13:52:47;7.95;;;1.90;;
48789;SDS011;41718;51.980;5.734;2023-04-24T13:57:48;1.60;;;1.00;;
48789;SDS011;41718;51.980;5.734;2023-04-24T14:02:50;7.88;;;2.05;;
48789;SDS011;41718;51.980;5.734;2023-04-24T14:07:52;3.65;;;0.68;;
48789;SDS011;41718;51.980;5.734;2023-04-24T14:12:53;11.68;;;4.97;;
48789;SDS011;41718;51.980;5.734;2023-04-24T14:17:55;4.18;;;2.30;;
48789;SDS011;41718;51.980;5.734;2023-04-24T14:22:56;3.95;;;2.17;;
48789;SDS011;41718;51.980;5.734;2023-04-24T14:28:00;2.00;;;0.93;;
48789;SDS011;41718;51.980;5.734;2023-04-24T14:33:01;6.35;;;1.80;;
48789;SDS011;41718;51.980;5.734;2023-04-24T14:38:03;8.55;;;2.20;;
48789;SDS011;41718;51.980;5.734;2023-04-24T14:43:04;4.07;;;1.50;;
48789;SDS011;41718;51.980;5.734;2023-04-24T14:48:06;10.70;;;2.17;;
48789;SDS011;41718;51.980;5.734;2023-04-24T14:53:09;5.05;;;1.13;;
48789;SDS011;41718;51.980;5.734;2023-04-24T14:58:10;7.00;;;2.40;;
48789;SDS011;41718;51.980;5.734;2023-04-24T15:03:12;4.80;;;1.08;;
48789;SDS011;41718;51.980;5.734;2023-04-24T15:08:14;10.57;;;3.45;;
48789;SDS011;41718;51.980;5.734;2023-04-24T15:13:15;4.68;;;2.20;;
48789;SDS011;41718;51.980;5.734;2023-04-24T15:18:17;7.00;;;2.47;;
48789;SDS011;41718;51.980;5.734;2023-04-24T15:23:18;4.40;;;1.80;;
48789;SDS011;41718;51.980;5.734;2023-04-24T15:28:21;7.95;;;2.45;;
48789;SDS011;41718;51.980;5.734;2023-04-24T15:33:23;13.45;;;4.53;;
48789;SDS011;41718;51.980;5.734;2023-04-24T15:38:25;10.65;;;3.58;;
48789;SDS011;41718;51.980;5.734;2023-04-24T15:43:26;4.07;;;2.17;;
48789;SDS011;41718;51.980;5.734;2023-04-24T15:48:31;7.65;;;3.05;;
48789;SDS011;41718;51.980;5.734;2023-04-24T15:53:32;11.57;;;3.83;;
48789;SDS011;41718;51.980;5.734;2023-04-24T15:58:36;5.43;;;2.67;;
48789;SDS011;41718;51.980;5.734;2023-04-24T16:03:38;6.70;;;1.75;;
48789;SDS011;41718;51.980;5.734;2023-04-24T16:08:40;4.25;;;1.88;;
48789;SDS011;41718;51.980;5.734;2023-04-24T16:13:41;5.22;;;3.03;;
48789;SDS011;41718;51.980;5.734;2023-04-24T16:18:43;4.88;;;2.75;;
48789;SDS011;41718;51.980;5.734;2023-04-24T16:23:44;9.13;;;3.65;;
48789;SDS011;41718;51.980;5.734;2023-04-24T16:28:46;4.20;;;2.10;;
48789;SDS011;41718;51.980;5.734;2023-04-24T16:33:50;4.20;;;1.95;;
48789;SDS011;41718;51.980;5.734;2023-04-24T16:38:51;4.22;;;1.98;;
48789;SDS011;41718;51.980;5.734;2023-04-24T16:43:53;7.35;;;2.72;;
48789;SDS011;41718;51.980;5.734;2023-04-24T16:48:55;11.68;;;4.55;;
48789;SDS011;41718;51.980;5.734;2023-04-24T16:53:57;6.30;;;2.63;;
48789;SDS011;41718;51.980;5.734;2023-04-24T16:58:59;10.32;;;3.28;;
48789;SDS011;41718;51.980;5.734;2023-04-24T17:04:03;2.13;;;1.40;;
48789;SDS011;41718;51.980;5.734;2023-04-24T17:09:05;11.10;;;3.65;;
48789;SDS011;41718;51.980;5.734;2023-04-24T17:14:07;5.45;;;2.58;;
48789;SDS011;41718;51.980;5.734;2023-04-24T17:19:08;9.82;;;4.30;;
48789;SDS011;41718;51.980;5.734;2023-04-24T17:24:09;18.73;;;7.38;;
48789;SDS011;41718;51.980;5.734;2023-04-24T17:29:11;5.78;;;2.03;;
48789;SDS011;41718;51.980;5.734;2023-04-24T17:34:15;13.05;;;3.88;;
48789;SDS011;41718;51.980;5.734;2023-04-24T17:39:17;6.05;;;3.15;;
48789;SDS011;41718;51.980;5.734;2023-04-24T17:44:20;6.88;;;2.58;;
48789;SDS011;41718;51.980;5.734;2023-04-24T17:49:22;10.35;;;3.42;;
48789;SDS011;41718;51.980;5.734;2023-04-24T17:54:24;5.28;;;2.58;;
48789;SDS011;41718;51.980;5.734;2023-04-24T17:59:25;10.63;;;2.53;;
48789;SDS011;41718;51.980;5.734;2023-04-24T18:04:27;3.85;;;2.00;;
48789;SDS011;41718;51.980;5.734;2023-04-24T18:09:29;13.95;;;4.28;;
48789;SDS011;41718;51.980;5.734;2023-04-24T18:14:30;10.70;;;3.42;;
48789;SDS011;41718;51.980;5.734;2023-04-24T18:19:32;9.65;;;4.18;;
48789;SDS011;41718;51.980;5.734;2023-04-24T18:24:33;6.60;;;3.30;;
48789;SDS011;41718;51.980;5.734;2023-04-24T18:29:35;14.45;;;4.45;;
48789;SDS011;41718;51.980;5.734;2023-04-24T18:34:36;12.13;;;5.70;;
48789;SDS011;41718;51.980;5.734;2023-04-24T18:39:38;10.32;;;3.58;;
48789;SDS011;41718;51.980;5.734;2023-04-24T18:44:39;6.05;;;2.22;;
48789;SDS011;41718;51.980;5.734;2023-04-24T18:49:53;13.35;;;4.53;;
48789;SDS011;41718;51.980;5.734;2023-04-24T18:54:58;10.68;;;4.07;;
48789;SDS011;41718;51.980;5.734;2023-04-24T19:00:03;6.53;;;3.05;;
48789;SDS011;41718;51.980;5.734;2023-04-24T19:05:06;12.45;;;3.17;;
48789;SDS011;41718;51.980;5.734;2023-04-24T19:10:10;10.80;;;4.60;;
48789;SDS011;41718;51.980;5.734;2023-04-24T19:15:15;21.25;;;5.22;;
48789;SDS011;41718;51.980;5.734;2023-04-24T19:20:18;8.95;;;3.70;;
48789;SDS011;41718;51.980;5.734;2023-04-24T19:25:21;15.30;;;4.85;;
48789;SDS011;41718;51.980;5.734;2023-04-24T19:30:23;16.92;;;5.00;;
48789;SDS011;41718;51.980;5.734;2023-04-24T19:35:25;12.40;;;3.95;;
48789;SDS011;41718;51.980;5.734;2023-04-24T19:40:29;12.55;;;4.45;;
48789;SDS011;41718;51.980;5.734;2023-04-24T19:45:36;15.27;;;4.05;;
48789;SDS011;41718;51.980;5.734;2023-04-24T19:50:39;12.80;;;4.77;;
48789;SDS011;41718;51.980;5.734;2023-04-24T19:55:44;15.07;;;4.18;;
48789;SDS011;41718;51.980;5.734;2023-04-24T20:00:47;15.60;;;5.45;;
48789;SDS011;41718;51.980;5.734;2023-04-24T20:05:51;9.10;;;3.40;;
48789;SDS011;41718;51.980;5.734;2023-04-24T20:10:52;13.88;;;4.25;;
48789;SDS011;41718;51.980;5.734;2023-04-24T20:15:54;10.40;;;4.13;;
48789;SDS011;41718;51.980;5.734;2023-04-24T20:21:02;12.07;;;5.07;;
48789;SDS011;41718;51.980;5.734;2023-04-24T20:26:04;14.20;;;4.82;;
48789;SDS011;41718;51.980;5.734;2023-04-24T20:31:09;11.82;;;4.15;;
48789;SDS011;41718;51.980;5.734;2023-04-24T20:36:12;10.77;;;3.50;;
48789;SDS011;41718;51.980;5.734;2023-04-24T20:41:14;7.97;;;3.13;;
48789;SDS011;41718;51.980;5.734;2023-04-24T20:46:17;7.70;;;4.18;;
48789;SDS011;41718;51.980;5.734;2023-04-24T20:51:18;7.45;;;2.58;;
48789;SDS011;41718;51.980;5.734;2023-04-24T20:56:21;6.25;;;2.53;;
48789;SDS011;41718;51.980;5.734;2023-04-24T21:01:25;10.48;;;3.25;;
48789;SDS011;41718;51.980;5.734;2023-04-24T21:06:30;8.13;;;3.13;;
48789;SDS011;41718;51.980;5.734;2023-04-24T21:11:32;4.18;;;2.20;;
48789;SDS011;41718;51.980;5.734;2023-04-24T21:16:36;9.68;;;1.83;;
48789;SDS011;41718;51.980;5.734;2023-04-24T21:21:38;4.45;;;2.03;;
48789;SDS011;41718;51.980;5.734;2023-04-24T21:26:40;3.42;;;1.67;;
48789;SDS011;41718;51.980;5.734;2023-04-24T21:31:43;4.00;;;1.02;;
48789;SDS011;41718;51.980;5.734;2023-04-24T21:36:45;2.50;;;1.60;;
48789;SDS011;41718;51.980;5.734;2023-04-24T21:41:49;1.98;;;1.63;;
48789;SDS011;41718;51.980;5.734;2023-04-24T21:46:51;4.93;;;1.63;;
48789;SDS011;41718;51.980;5.734;2023-04-24T21:51:56;3.72;;;1.35;;
48789;SDS011;41718;51.980;5.734;2023-04-24T21:57:00;2.60;;;1.00;;
48789;SDS011;41718;51.980;5.734;2023-04-24T22:02:04;5.35;;;1.65;;
48789;SDS011;41718;51.980;5.734;2023-04-24T22:07:06;7.63;;;2.17;;
48789;SDS011;41718;51.980;5.734;2023-04-24T22:12:08;4.05;;;1.92;;
48789;SDS011;41718;51.980;5.734;2023-04-24T22:17:15;1.67;;;1.10;;
48789;SDS011;41718;51.980;5.734;2023-04-24T22:22:18;3.35;;;1.55;;
48789;SDS011;41718;51.980;5.734;2023-04-24T22:27:20;2.40;;;1.80;;
48789;SDS011;41718;51.980;5.734;2023-04-24T22:32:25;5.28;;;1.38;;
48789;SDS011;41718;51.980;5.734;2023-04-24T22:37:26;3.22;;;1.25;;
48789;SDS011;41718;51.980;5.734;2023-04-24T22:42:28;2.17;;;1.30;;
48789;SDS011;41718;51.980;5.734;2023-04-24T22:47:30;2.92;;;1.92;;
48789;SDS011;41718;51.980;5.734;2023-04-24T22:52:31;6.00;;;1.77;;
48789;SDS011;41718;51.980;5.734;2023-04-24T22:57:33;3.17;;;1.30;;
48789;SDS011;41718;51.980;5.734;2023-04-24T23:02:39;2.38;;;1.63;;
48789;SDS011;41718;51.980;5.734;2023-04-24T23:07:41;6.97;;;2.45;;
48789;SDS011;41718;51.980;5.734;2023-04-24T23:12:43;14.32;;;2.58;;
48789;SDS011;41718;51.980;5.734;2023-04-24T23:23:12;3.97;;;2.50;;
48789;SDS011;41718;51.980;5.734;2023-04-24T23:28:14;10.18;;;3.30;;
48789;SDS011;41718;51.980;5.734;2023-04-24T23:33:15;11.10;;;3.60;;
48789;SDS011;41718;51.980;5.734;2023-04-24T23:38:17;6.60;;;2.97;;
48789;SDS011;41718;51.980;5.734;2023-04-24T23:43:18;13.20;;;3.65;;
48789;SDS011;41718;51.980;5.734;2023-04-24T23:48:20;5.68;;;2.40;;
48789;SDS011;41718;51.980;5.734;2023-04-24T23:53:21;10.57;;;3.92;;
48789;SDS011;41718;51.980;5.734;2023-04-24T23:58:23;16.45;;;4.53;;
